Alpine, Arizona
Current Conditions -  °F | °C
As of 6:15 AM on Sunday 23 Nov 2014 (Local Time) from KJTC Reporting Station
Clear Clear  
Wind Chill: 25°   Ceiling: Unl
Heat Index: 36°   Visibility: 10mi
Dew Point: 21°   Wind: 17mph
Humidity: 56%   Direction: 260°W
Pressure: 29.99"   Gusts: NA
Location:  33.85°N, 109.14°W
Report Text: KJTC 231315Z AUTO 26015KT 10SM CLR 02/M06 A2999 RMK AO2
Loading
Personal Weather Stations






























Interactive Weather Map New forecast layout! Learn more

10-Day Weather Forecast

Advertisements
Track Severe Weather on mobile